sensor_id;sensor_type;location;lat;lon;timestamp;pressure;altitude;pressure_sealevel;temperature
43802;BMP280;29429;51.074;13.764;2023-04-03T00:01:17;101035.25;;;4.43
43802;BMP280;29429;51.074;13.764;2023-04-03T00:03:45;101039.00;;;4.40
43802;BMP280;29429;51.074;13.764;2023-04-03T00:06:15;101039.16;;;4.39
43802;BMP280;29429;51.074;13.764;2023-04-03T00:08:43;101031.63;;;4.34
43802;BMP280;29429;51.074;13.764;2023-04-03T00:11:32;101038.84;;;4.32
43802;BMP280;29429;51.074;13.764;2023-04-03T00:14:00;101051.84;;;4.24
43802;BMP280;29429;51.074;13.764;2023-04-03T00:16:27;101045.84;;;4.12
43802;BMP280;29429;51.074;13.764;2023-04-03T00:18:55;101046.22;;;4.08
43802;BMP280;29429;51.074;13.764;2023-04-03T00:21:22;101052.34;;;4.08
43802;BMP280;29429;51.074;13.764;2023-04-03T00:23:50;101050.53;;;4.09
43802;BMP280;29429;51.074;13.764;2023-04-03T00:26:18;101060.66;;;4.04
43802;BMP280;29429;51.074;13.764;2023-04-03T00:28:45;101059.97;;;4.02
43802;BMP280;29429;51.074;13.764;2023-04-03T00:31:15;101061.44;;;3.95
43802;BMP280;29429;51.074;13.764;2023-04-03T00:33:43;101068.38;;;3.96
43802;BMP280;29429;51.074;13.764;2023-04-03T00:36:11;101065.31;;;3.91
43802;BMP280;29429;51.074;13.764;2023-04-03T00:38:40;101069.88;;;3.89
43802;BMP280;29429;51.074;13.764;2023-04-03T00:41:08;101078.34;;;3.92
43802;BMP280;29429;51.074;13.764;2023-04-03T00:43:35;101074.75;;;3.93
43802;BMP280;29429;51.074;13.764;2023-04-03T00:46:03;101078.34;;;3.92
43802;BMP280;29429;51.074;13.764;2023-04-03T00:48:43;101072.25;;;3.92
43802;BMP280;29429;51.074;13.764;2023-04-03T00:51:20;101076.81;;;3.90
43802;BMP280;29429;51.074;13.764;2023-04-03T00:53:59;101069.16;;;3.87
43802;BMP280;29429;51.074;13.764;2023-04-03T00:56:29;101071.22;;;3.83
43802;BMP280;29429;51.074;13.764;2023-04-03T00:59:06;101073.97;;;3.82
43802;BMP280;29429;51.074;13.764;2023-04-03T01:01:35;101073.28;;;3.80
43802;BMP280;29429;51.074;13.764;2023-04-03T01:04:04;101081.59;;;3.75
43802;BMP280;29429;51.074;13.764;2023-04-03T01:06:36;101081.00;;;3.72
43802;BMP280;29429;51.074;13.764;2023-04-03T01:09:08;101081.00;;;3.72
43802;BMP280;29429;51.074;13.764;2023-04-03T01:11:36;101092.25;;;3.74
43802;BMP280;29429;51.074;13.764;2023-04-03T01:14:05;101092.78;;;3.67
43802;BMP280;29429;51.074;13.764;2023-04-03T01:16:34;101089.56;;;3.64
43802;BMP280;29429;51.074;13.764;2023-04-03T01:19:10;101090.66;;;3.61
43802;BMP280;29429;51.074;13.764;2023-04-03T01:21:56;101100.25;;;3.62
43802;BMP280;29429;51.074;13.764;2023-04-03T01:24:37;101103.00;;;3.61
43802;BMP280;29429;51.074;13.764;2023-04-03T01:27:11;101105.88;;;3.58
43802;BMP280;29429;51.074;13.764;2023-04-03T01:29:41;101105.56;;;3.51
43802;BMP280;29429;51.074;13.764;2023-04-03T01:32:10;101116.59;;;3.45
43802;BMP280;29429;51.074;13.764;2023-04-03T01:34:38;101112.28;;;3.44
43802;BMP280;29429;51.074;13.764;2023-04-03T01:37:06;101117.09;;;3.39
43802;BMP280;29429;51.074;13.764;2023-04-03T01:39:35;101120.94;;;3.35
43802;BMP280;29429;51.074;13.764;2023-04-03T04:08:34;101217.44;;;0.69
43802;BMP280;29429;51.074;13.764;2023-04-03T04:11:02;101220.81;;;0.71
43802;BMP280;29429;51.074;13.764;2023-04-03T04:13:30;101212.94;;;0.71
43802;BMP280;29429;51.074;13.764;2023-04-03T04:15:58;101224.28;;;0.84
43802;BMP280;29429;51.074;13.764;2023-04-03T04:18:25;101231.19;;;0.85
43802;BMP280;29429;51.074;13.764;2023-04-03T04:20:55;101237.69;;;1.05
43802;BMP280;29429;51.074;13.764;2023-04-03T04:23:30;101240.84;;;0.97
43802;BMP280;29429;51.074;13.764;2023-04-03T04:25:59;101240.41;;;1.03
43802;BMP280;29429;51.074;13.764;2023-04-03T04:28:48;101238.78;;;0.90
43802;BMP280;29429;51.074;13.764;2023-04-03T04:31:21;101246.44;;;0.68
43802;BMP280;29429;51.074;13.764;2023-04-03T04:33:49;101247.38;;;0.67
43802;BMP280;29429;51.074;13.764;2023-04-03T04:36:46;101255.56;;;0.75
43802;BMP280;29429;51.074;13.764;2023-04-03T04:41:39;101260.06;;;0.60
43802;BMP280;29429;51.074;13.764;2023-04-03T04:46:12;101255.75;;;0.59
43802;BMP280;29429;51.074;13.764;2023-04-03T04:50:11;101263.19;;;0.40
43802;BMP280;29429;51.074;13.764;2023-04-03T04:53:45;101264.69;;;0.44
43802;BMP280;29429;51.074;13.764;2023-04-03T04:56:15;101278.81;;;0.29
43802;BMP280;29429;51.074;13.764;2023-04-03T04:58:44;101282.84;;;0.47
43802;BMP280;29429;51.074;13.764;2023-04-03T05:01:12;101279.69;;;0.54
43802;BMP280;29429;51.074;13.764;2023-04-03T05:03:53;101274.00;;;0.48
43802;BMP280;29429;51.074;13.764;2023-04-03T05:06:22;101282.84;;;0.47
43802;BMP280;29429;51.074;13.764;2023-04-03T05:08:49;101275.28;;;0.42
43802;BMP280;29429;51.074;13.764;2023-04-03T05:11:17;101280.72;;;0.39
43802;BMP280;29429;51.074;13.764;2023-04-03T05:13:46;101277.78;;;0.31
43802;BMP280;29429;51.074;13.764;2023-04-03T05:16:13;101292.47;;;0.34
43802;BMP280;29429;51.074;13.764;2023-04-03T05:18:41;101280.94;;;0.36
43802;BMP280;29429;51.074;13.764;2023-04-03T05:21:16;101283.97;;;0.43
43802;BMP280;29429;51.074;13.764;2023-04-03T05:23:46;101287.38;;;0.45
43802;BMP280;29429;51.074;13.764;2023-04-03T05:26:13;101283.03;;;0.44
43802;BMP280;29429;51.074;13.764;2023-04-03T05:28:41;101286.41;;;0.46
43802;BMP280;29429;51.074;13.764;2023-04-03T05:31:08;101290.81;;;0.45
43802;BMP280;29429;51.074;13.764;2023-04-03T05:33:36;101282.84;;;0.47
43802;BMP280;29429;51.074;13.764;2023-04-03T05:36:06;101283.97;;;0.43
43802;BMP280;29429;51.074;13.764;2023-04-03T05:38:40;101283.78;;;0.46
43802;BMP280;29429;51.074;13.764;2023-04-03T05:41:08;101293.56;;;0.56
43802;BMP280;29429;51.074;13.764;2023-04-03T05:43:36;101303.44;;;0.66
43802;BMP280;29429;51.074;13.764;2023-04-03T05:46:17;101298.50;;;0.61
43802;BMP280;29429;51.074;13.764;2023-04-03T05:48:49;101287.25;;;0.59
43802;BMP280;29429;51.074;13.764;2023-04-03T05:51:25;101298.81;;;0.69
43802;BMP280;29429;51.074;13.764;2023-04-03T05:54:25;101290.22;;;0.67
43802;BMP280;29429;51.074;13.764;2023-04-03T05:56:57;101305.22;;;0.65
43802;BMP280;29429;51.074;13.764;2023-04-03T05:59:26;101300.31;;;0.73
43802;BMP280;29429;51.074;13.764;2023-04-03T06:01:56;101309.09;;;0.72
43802;BMP280;29429;51.074;13.764;2023-04-03T06:04:24;101296.94;;;0.71
43802;BMP280;29429;51.074;13.764;2023-04-03T06:06:57;101301.56;;;0.80
43802;BMP280;29429;51.074;13.764;2023-04-03T06:09:28;101299.25;;;0.88
43802;BMP280;29429;51.074;13.764;2023-04-03T06:12:00;101314.06;;;1.02
43802;BMP280;29429;51.074;13.764;2023-04-03T06:14:29;101295.38;;;1.06
43802;BMP280;29429;51.074;13.764;2023-04-03T06:16:56;101309.13;;;1.22
43802;BMP280;29429;51.074;13.764;2023-04-03T06:19:24;101302.81;;;1.25
43802;BMP280;29429;51.074;13.764;2023-04-03T06:21:55;101318.78;;;1.47
43802;BMP280;29429;51.074;13.764;2023-04-03T06:24:23;101316.84;;;1.62
43802;BMP280;29429;51.074;13.764;2023-04-03T06:26:54;101308.09;;;1.74
43802;BMP280;29429;51.074;13.764;2023-04-03T06:29:22;101310.56;;;1.88
43802;BMP280;29429;51.074;13.764;2023-04-03T06:31:51;101323.34;;;2.05
43802;BMP280;29429;51.074;13.764;2023-04-03T06:34:18;101309.34;;;2.05
43802;BMP280;29429;51.074;13.764;2023-04-03T06:36:46;101320.56;;;2.19
43802;BMP280;29429;51.074;13.764;2023-04-03T06:39:20;101324.19;;;2.29
43802;BMP280;29429;51.074;13.764;2023-04-03T06:41:49;101325.84;;;2.30
43802;BMP280;29429;51.074;13.764;2023-04-03T06:44:27;101320.16;;;2.36
43802;BMP280;29429;51.074;13.764;2023-04-03T06:47:06;101329.78;;;2.49
43802;BMP280;29429;51.074;13.764;2023-04-03T06:49:36;101324.78;;;2.57
43802;BMP280;29429;51.074;13.764;2023-04-03T06:52:08;101316.81;;;2.69
43802;BMP280;29429;51.074;13.764;2023-04-03T06:54:35;101315.75;;;2.83
43802;BMP280;29429;51.074;13.764;2023-04-03T06:57:05;101321.97;;;2.82
43802;BMP280;29429;51.074;13.764;2023-04-03T06:59:33;101336.13;;;2.92
43802;BMP280;29429;51.074;13.764;2023-04-03T07:02:20;101324.50;;;2.94
43802;BMP280;29429;51.074;13.764;2023-04-03T07:04:55;101322.50;;;2.98
43802;BMP280;29429;51.074;13.764;2023-04-03T07:07:23;101332.94;;;3.11
43802;BMP280;29429;51.074;13.764;2023-04-03T07:09:56;101329.47;;;3.32
43802;BMP280;29429;51.074;13.764;2023-04-03T07:12:23;101343.38;;;3.45
43802;BMP280;29429;51.074;13.764;2023-04-03T07:14:57;101339.31;;;3.52
43802;BMP280;29429;51.074;13.764;2023-04-03T07:17:24;101336.91;;;3.60
43802;BMP280;29429;51.074;13.764;2023-04-03T07:19:52;101352.63;;;3.73
43802;BMP280;29429;51.074;13.764;2023-04-03T07:22:21;101332.59;;;3.59
43802;BMP280;29429;51.074;13.764;2023-04-03T07:24:49;101346.63;;;3.60
43802;BMP280;29429;51.074;13.764;2023-04-03T07:27:24;101344.34;;;3.55
43802;BMP280;29429;51.074;13.764;2023-04-03T07:29:51;101348.44;;;3.59
43802;BMP280;29429;51.074;13.764;2023-04-03T07:32:22;101353.44;;;3.74
43802;BMP280;29429;51.074;13.764;2023-04-03T07:34:49;101359.94;;;3.92
43802;BMP280;29429;51.074;13.764;2023-04-03T07:37:17;101356.28;;;4.04
43802;BMP280;29429;51.074;13.764;2023-04-03T07:39:44;101357.47;;;4.11
43802;BMP280;29429;51.074;13.764;2023-04-03T07:42:12;101364.44;;;4.12
43802;BMP280;29429;51.074;13.764;2023-04-03T07:44:39;101353.03;;;4.11
43802;BMP280;29429;51.074;13.764;2023-04-03T07:47:10;101353.75;;;4.13
43802;BMP280;29429;51.074;13.764;2023-04-03T07:49:37;101362.81;;;4.31
43802;BMP280;29429;51.074;13.764;2023-04-03T07:52:06;101369.63;;;4.45
43802;BMP280;29429;51.074;13.764;2023-04-03T07:54:36;101367.06;;;4.55
43802;BMP280;29429;51.074;13.764;2023-04-03T07:57:04;101371.03;;;4.60
43802;BMP280;29429;51.074;13.764;2023-04-03T07:59:51;101371.25;;;4.57
43802;BMP280;29429;51.074;13.764;2023-04-03T08:02:22;101374.41;;;4.51
43802;BMP280;29429;51.074;13.764;2023-04-03T08:04:50;101373.00;;;4.47
43802;BMP280;29429;51.074;13.764;2023-04-03T08:07:19;101376.56;;;4.57
43802;BMP280;29429;51.074;13.764;2023-04-03T08:09:48;101371.03;;;4.60
43802;BMP280;29429;51.074;13.764;2023-04-03T08:12:16;101369.56;;;4.56
43802;BMP280;29429;51.074;13.764;2023-04-03T08:14:43;101368.31;;;4.71
43802;BMP280;29429;51.074;13.764;2023-04-03T08:17:11;101359.31;;;4.95
43802;BMP280;29429;51.074;13.764;2023-04-03T08:19:42;101360.53;;;5.11
43802;BMP280;29429;51.074;13.764;2023-04-03T08:22:11;101360.81;;;5.08
43802;BMP280;29429;51.074;13.764;2023-04-03T08:24:40;101370.53;;;5.08
43802;BMP280;29429;51.074;13.764;2023-04-03T08:27:24;101360.91;;;5.27
43802;BMP280;29429;51.074;13.764;2023-04-03T08:29:52;101371.75;;;5.45
43802;BMP280;29429;51.074;13.764;2023-04-03T08:32:19;101370.03;;;5.44
43802;BMP280;29429;51.074;13.764;2023-04-03T08:34:47;101369.66;;;5.48
43802;BMP280;29429;51.074;13.764;2023-04-03T08:37:14;101370.50;;;5.49
43802;BMP280;29429;51.074;13.764;2023-04-03T08:39:43;101363.72;;;5.35
43802;BMP280;29429;51.074;13.764;2023-04-03T08:42:46;101375.16;;;5.36
43802;BMP280;29429;51.074;13.764;2023-04-03T08:48:06;101372.53;;;5.45
43802;BMP280;29429;51.074;13.764;2023-04-03T08:50:41;101367.06;;;5.58
43802;BMP280;29429;51.074;13.764;2023-04-03T08:53:24;101364.41;;;5.58
43802;BMP280;29429;51.074;13.764;2023-04-03T08:55:54;101368.63;;;5.70
43802;BMP280;29429;51.074;13.764;2023-04-03T08:58:26;101362.75;;;5.97
43802;BMP280;29429;51.074;13.764;2023-04-03T09:01:00;101374.09;;;6.08
43802;BMP280;29429;51.074;13.764;2023-04-03T09:03:32;101376.16;;;5.95
43802;BMP280;29429;51.074;13.764;2023-04-03T09:14:13;101365.03;;;6.11
43802;BMP280;29429;51.074;13.764;2023-04-03T09:16:55;101354.31;;;6.12
43802;BMP280;29429;51.074;13.764;2023-04-03T09:19:48;101355.72;;;6.36
43802;BMP280;29429;51.074;13.764;2023-04-03T09:22:30;101356.31;;;6.68
43802;BMP280;29429;51.074;13.764;2023-04-03T09:25:20;101351.09;;;7.05
43802;BMP280;29429;51.074;13.764;2023-04-03T09:27:49;101358.53;;;7.01
43802;BMP280;29429;51.074;13.764;2023-04-03T09:30:20;101361.47;;;6.98
43802;BMP280;29429;51.074;13.764;2023-04-03T09:32:53;101365.41;;;6.75
43802;BMP280;29429;51.074;13.764;2023-04-03T09:35:27;101364.13;;;6.60
43802;BMP280;29429;51.074;13.764;2023-04-03T09:38:15;101359.41;;;6.54
43802;BMP280;29429;51.074;13.764;2023-04-03T09:40:45;101350.03;;;6.50
43802;BMP280;29429;51.074;13.764;2023-04-03T09:43:21;101350.72;;;6.42
43802;BMP280;29429;51.074;13.764;2023-04-03T09:45:51;101355.19;;;6.42
43802;BMP280;29429;51.074;13.764;2023-04-03T09:48:24;101345.56;;;6.60
43802;BMP280;29429;51.074;13.764;2023-04-03T09:50:53;101349.50;;;6.75
43802;BMP280;29429;51.074;13.764;2023-04-03T09:59:12;101337.31;;;6.82
43802;BMP280;29429;51.074;13.764;2023-04-03T10:01:43;101335.63;;;6.81
43802;BMP280;29429;51.074;13.764;2023-04-03T10:04:19;101332.03;;;6.82
43802;BMP280;29429;51.074;13.764;2023-04-03T10:06:56;101331.19;;;6.82
43802;BMP280;29429;51.074;13.764;2023-04-03T10:09:31;101332.19;;;6.61
43802;BMP280;29429;51.074;13.764;2023-04-03T10:12:09;101332.03;;;6.44
43802;BMP280;29429;51.074;13.764;2023-04-03T10:15:00;101331.03;;;6.26
43802;BMP280;29429;51.074;13.764;2023-04-03T10:18:05;101325.16;;;6.12
43802;BMP280;29429;51.074;13.764;2023-04-03T10:20:52;101325.31;;;6.21
43802;BMP280;29429;51.074;13.764;2023-04-03T10:23:36;101308.44;;;6.60
43802;BMP280;29429;51.074;13.764;2023-04-03T10:29:21;101310.09;;;6.90
43802;BMP280;29429;51.074;13.764;2023-04-03T10:34:35;101317.66;;;6.56
43802;BMP280;29429;51.074;13.764;2023-04-03T10:37:24;101300.06;;;6.74
43802;BMP280;29429;51.074;13.764;2023-04-03T10:46:13;101300.88;;;7.40
43802;BMP280;29429;51.074;13.764;2023-04-03T10:54:39;101307.19;;;7.29
43802;BMP280;29429;51.074;13.764;2023-04-03T10:57:09;101279.69;;;7.30
43802;BMP280;29429;51.074;13.764;2023-04-03T10:59:53;101287.94;;;7.55
43802;BMP280;29429;51.074;13.764;2023-04-03T11:02:44;101279.59;;;7.94
43802;BMP280;29429;51.074;13.764;2023-04-03T11:05:31;101278.44;;;8.07
43802;BMP280;29429;51.074;13.764;2023-04-03T11:08:10;101277.00;;;8.12
43802;BMP280;29429;51.074;13.764;2023-04-03T11:11:42;101283.50;;;8.00
43802;BMP280;29429;51.074;13.764;2023-04-03T11:16:28;101267.94;;;7.60
43802;BMP280;29429;51.074;13.764;2023-04-03T11:22:03;101274.28;;;7.50
43802;BMP280;29429;51.074;13.764;2023-04-03T11:24:33;101276.91;;;7.59
43802;BMP280;29429;51.074;13.764;2023-04-03T11:27:11;101261.25;;;7.56
43802;BMP280;29429;51.074;13.764;2023-04-03T11:29:44;101267.63;;;7.36
43802;BMP280;29429;51.074;13.764;2023-04-03T11:35:06;101264.84;;;7.38
43802;BMP280;29429;51.074;13.764;2023-04-03T11:37:50;101265.81;;;7.36
43802;BMP280;29429;51.074;13.764;2023-04-03T11:40:33;101267.72;;;7.54
43802;BMP280;29429;51.074;13.764;2023-04-03T11:43:41;101267.41;;;7.57
43802;BMP280;29429;51.074;13.764;2023-04-03T11:46:09;101253.00;;;7.59
43802;BMP280;29429;51.074;13.764;2023-04-03T11:53:44;101273.03;;;7.07
43802;BMP280;29429;51.074;13.764;2023-04-03T12:01:54;101264.50;;;7.13
43802;BMP280;29429;51.074;13.764;2023-04-03T12:04:27;101256.22;;;7.26
43802;BMP280;29429;51.074;13.764;2023-04-03T12:07:16;101261.16;;;7.48
43802;BMP280;29429;51.074;13.764;2023-04-03T12:12:37;101252.88;;;7.78
43802;BMP280;29429;51.074;13.764;2023-04-03T12:17:48;101253.97;;;7.85
43802;BMP280;29429;51.074;13.764;2023-04-03T12:23:33;101251.34;;;7.76
43802;BMP280;29429;51.074;13.764;2023-04-03T12:26:26;101256.44;;;7.87
43802;BMP280;29429;51.074;13.764;2023-04-03T12:32:09;101256.41;;;7.52
43802;BMP280;29429;51.074;13.764;2023-04-03T12:35:07;101252.22;;;7.49
43802;BMP280;29429;51.074;13.764;2023-04-03T12:37:50;101252.84;;;7.61
43802;BMP280;29429;51.074;13.764;2023-04-03T12:40:51;101257.75;;;7.56
43802;BMP280;29429;51.074;13.764;2023-04-03T12:46:52;101246.94;;;7.40
43802;BMP280;29429;51.074;13.764;2023-04-03T12:50:01;101249.50;;;7.31
43802;BMP280;29429;51.074;13.764;2023-04-03T12:52:58;101256.00;;;7.19
43802;BMP280;29429;51.074;13.764;2023-04-03T12:55:26;101256.38;;;7.24
43802;BMP280;29429;51.074;13.764;2023-04-03T12:57:56;101247.41;;;7.25
43802;BMP280;29429;51.074;13.764;2023-04-03T13:00:35;101251.25;;;7.13
43802;BMP280;29429;51.074;13.764;2023-04-03T13:03:07;101258.25;;;7.14
43802;BMP280;29429;51.074;13.764;2023-04-03T13:05:46;101257.13;;;7.07
43802;BMP280;29429;51.074;13.764;2023-04-03T13:08:22;101249.63;;;7.03
43802;BMP280;29429;51.074;13.764;2023-04-03T13:11:07;101257.97;;;7.17
43802;BMP280;29429;51.074;13.764;2023-04-03T13:13:37;101250.97;;;7.16
43802;BMP280;29429;51.074;13.764;2023-04-03T13:16:10;101249.94;;;7.27
43802;BMP280;29429;51.074;13.764;2023-04-03T13:18:38;101256.78;;;7.29
43802;BMP280;29429;51.074;13.764;2023-04-03T13:21:19;101245.53;;;7.45
43802;BMP280;29429;51.074;13.764;2023-04-03T13:23:52;101236.44;;;7.48
43802;BMP280;29429;51.074;13.764;2023-04-03T13:26:33;101238.59;;;7.62
43802;BMP280;29429;51.074;13.764;2023-04-03T13:29:06;101241.78;;;7.65
43802;BMP280;29429;51.074;13.764;2023-04-03T13:31:43;101245.22;;;7.48
43802;BMP280;29429;51.074;13.764;2023-04-03T13:34:18;101244.56;;;7.46
43802;BMP280;29429;51.074;13.764;2023-04-03T13:39:24;101253.53;;;7.63
43802;BMP280;29429;51.074;13.764;2023-04-03T13:41:57;101244.88;;;7.61
43802;BMP280;29429;51.074;13.764;2023-04-03T13:44:32;101239.63;;;7.51
43802;BMP280;29429;51.074;13.764;2023-04-03T13:47:17;101242.09;;;7.35
43802;BMP280;29429;51.074;13.764;2023-04-03T13:52:51;101234.13;;;6.98
43802;BMP280;29429;51.074;13.764;2023-04-03T13:55:53;101232.13;;;7.10
43802;BMP280;29429;51.074;13.764;2023-04-03T13:58:22;101229.34;;;7.11
43802;BMP280;29429;51.074;13.764;2023-04-03T14:00:55;101219.34;;;7.32
43802;BMP280;29429;51.074;13.764;2023-04-03T14:03:30;101218.41;;;7.51
43802;BMP280;29429;51.074;13.764;2023-04-03T14:06:01;101236.28;;;7.49
43802;BMP280;29429;51.074;13.764;2023-04-03T14:08:31;101229.16;;;7.22
43802;BMP280;29429;51.074;13.764;2023-04-03T14:11:17;101225.28;;;7.07
43802;BMP280;29429;51.074;13.764;2023-04-03T14:13:46;101231.09;;;6.93
43802;BMP280;29429;51.074;13.764;2023-04-03T14:16:20;101232.91;;;6.93
43802;BMP280;29429;51.074;13.764;2023-04-03T14:18:49;101235.69;;;6.91
43802;BMP280;29429;51.074;13.764;2023-04-03T14:21:19;101234.03;;;6.90
43802;BMP280;29429;51.074;13.764;2023-04-03T14:23:47;101238.31;;;6.91
43802;BMP280;29429;51.074;13.764;2023-04-03T14:26:20;101235.44;;;6.85
43802;BMP280;29429;51.074;13.764;2023-04-03T14:28:50;101232.50;;;6.88
43802;BMP280;29429;51.074;13.764;2023-04-03T14:31:20;101239.56;;;6.97
43802;BMP280;29429;51.074;13.764;2023-04-03T14:33:48;101234.53;;;7.03
43802;BMP280;29429;51.074;13.764;2023-04-03T14:36:21;101239.78;;;7.13
43802;BMP280;29429;51.074;13.764;2023-04-03T14:38:50;101230.59;;;7.07
43802;BMP280;29429;51.074;13.764;2023-04-03T14:41:20;101226.34;;;6.87
43802;BMP280;29429;51.074;13.764;2023-04-03T14:43:49;101224.28;;;6.81
43802;BMP280;29429;51.074;13.764;2023-04-03T14:46:40;101230.25;;;6.83
43802;BMP280;29429;51.074;13.764;2023-04-03T14:49:29;101239.34;;;6.81
43802;BMP280;29429;51.074;13.764;2023-04-03T14:51:58;101227.91;;;6.80
43802;BMP280;29429;51.074;13.764;2023-04-03T14:54:28;101239.22;;;6.82
43802;BMP280;29429;51.074;13.764;2023-04-03T14:56:58;101240.47;;;6.78
43802;BMP280;29429;51.074;13.764;2023-04-03T14:59:27;101233.06;;;6.82
43802;BMP280;29429;51.074;13.764;2023-04-03T15:01:55;101230.53;;;6.90
43802;BMP280;29429;51.074;13.764;2023-04-03T15:04:22;101226.31;;;6.97
43802;BMP280;29429;51.074;13.764;2023-04-03T15:06:52;101225.50;;;6.96
43802;BMP280;29429;51.074;13.764;2023-04-03T15:09:25;101229.00;;;6.87
43802;BMP280;29429;51.074;13.764;2023-04-03T15:11:55;101228.31;;;6.75
43802;BMP280;29429;51.074;13.764;2023-04-03T15:14:23;101223.59;;;6.79
43802;BMP280;29429;51.074;13.764;2023-04-03T15:17:05;101222.63;;;6.80
43802;BMP280;29429;51.074;13.764;2023-04-03T15:19:37;101221.34;;;6.84
43802;BMP280;29429;51.074;13.764;2023-04-03T15:22:06;101223.53;;;6.89
43802;BMP280;29429;51.074;13.764;2023-04-03T15:24:33;101224.25;;;6.91
43802;BMP280;29429;51.074;13.764;2023-04-03T15:27:01;101232.38;;;6.70
43802;BMP280;29429;51.074;13.764;2023-04-03T15:29:29;101218.19;;;6.52
43802;BMP280;29429;51.074;13.764;2023-04-03T15:31:56;101223.66;;;6.41
43802;BMP280;29429;51.074;13.764;2023-04-03T15:34:24;101223.25;;;6.36
43802;BMP280;29429;51.074;13.764;2023-04-03T15:36:51;101226.59;;;6.38
43802;BMP280;29429;51.074;13.764;2023-04-03T15:39:22;101226.84;;;6.44
43802;BMP280;29429;51.074;13.764;2023-04-03T15:41:50;101218.34;;;6.41
43802;BMP280;29429;51.074;13.764;2023-04-03T15:44:27;101222.13;;;6.38
43802;BMP280;29429;51.074;13.764;2023-04-03T15:46:55;101232.19;;;6.35
43802;BMP280;29429;51.074;13.764;2023-04-03T15:49:23;101227.44;;;6.29
43802;BMP280;29429;51.074;13.764;2023-04-03T15:51:52;101242.50;;;6.19
43802;BMP280;29429;51.074;13.764;2023-04-03T15:54:19;101230.81;;;6.11
43802;BMP280;29429;51.074;13.764;2023-04-03T15:56:47;101236.38;;;6.08
43802;BMP280;29429;51.074;13.764;2023-04-03T15:59:17;101237.63;;;6.04
43802;BMP280;29429;51.074;13.764;2023-04-03T16:01:45;101240.25;;;6.04
43802;BMP280;29429;51.074;13.764;2023-04-03T16:04:15;101233.16;;;6.05
43802;BMP280;29429;51.074;13.764;2023-04-03T16:10:39;101234.94;;;5.85
43802;BMP280;29429;51.074;13.764;2023-04-03T16:13:07;101239.97;;;5.88
43802;BMP280;29429;51.074;13.764;2023-04-03T16:15:36;101228.00;;;5.94
43802;BMP280;29429;51.074;13.764;2023-04-03T16:18:05;101241.22;;;5.94
43802;BMP280;29429;51.074;13.764;2023-04-03T16:20:35;101239.28;;;5.86
43802;BMP280;29429;51.074;13.764;2023-04-03T16:23:03;101246.94;;;5.89
43802;BMP280;29429;51.074;13.764;2023-04-03T16:25:30;101228.22;;;5.81
43802;BMP280;29429;51.074;13.764;2023-04-03T16:27:58;101233.63;;;5.70
43802;BMP280;29429;51.074;13.764;2023-04-03T16:30:26;101241.84;;;5.67
43802;BMP280;29429;51.074;13.764;2023-04-03T16:32:53;101240.03;;;5.68
43802;BMP280;29429;51.074;13.764;2023-04-03T16:35:22;101247.41;;;5.64
43802;BMP280;29429;51.074;13.764;2023-04-03T16:37:49;101248.66;;;5.60
43802;BMP280;29429;51.074;13.764;2023-04-03T16:40:16;101248.66;;;5.50
43802;BMP280;29429;51.074;13.764;2023-04-03T16:42:44;101250.41;;;5.40
43802;BMP280;29429;51.074;13.764;2023-04-03T16:45:11;101249.13;;;5.35
43802;BMP280;29429;51.074;13.764;2023-04-03T16:48:19;101238.53;;;5.25
43802;BMP280;29429;51.074;13.764;2023-04-03T16:50:57;101246.34;;;5.27
43802;BMP280;29429;51.074;13.764;2023-04-03T16:53:43;101250.66;;;5.28
43802;BMP280;29429;51.074;13.764;2023-04-03T16:56:13;101237.00;;;5.23
43802;BMP280;29429;51.074;13.764;2023-04-03T16:58:41;101237.69;;;5.25
43802;BMP280;29429;51.074;13.764;2023-04-03T17:01:28;101236.16;;;5.22
43802;BMP280;29429;51.074;13.764;2023-04-03T17:03:56;101241.69;;;5.19
43802;BMP280;29429;51.074;13.764;2023-04-03T17:06:24;101232.78;;;5.11
43802;BMP280;29429;51.074;13.764;2023-04-03T17:18:45;101256.97;;;4.55
43802;BMP280;29429;51.074;13.764;2023-04-03T17:22:29;101250.09;;;4.32
43802;BMP280;29429;51.074;13.764;2023-04-03T17:40:08;101263.50;;;3.77
43802;BMP280;29429;51.074;13.764;2023-04-03T23:03:25;101207.16;;;3.66
